Time;durP1;ratioP1;P1;durP2;ratioP2;P2;SDS_P1;SDS_P2;PMS_P1;PMS_P2;Temp;Humidity;BMP_temperature;BMP_pressure;BME280_temperature;BME280_humidity;BME280_pressure;Samples;Min_cycle;Max_cycle;Signal;HPM_P1;HPM_P2
2021/10/19 00:03:08;;;;;;;13.93;11.47;;;;;14.70;101355.00;;;;10303864;28;20200;-78
2021/10/19 00:08:10;;;;;;;12.13;10.50;;;;;14.70;101342.00;;;;10313900;28;20738;-78
2021/10/19 00:13:12;;;;;;;13.27;10.60;;;;;14.70;101331.00;;;;10325736;28;20195;-78
2021/10/19 00:18:14;;;;;;;15.47;10.30;;;;;14.70;101336.00;;;;10320243;28;20540;-78
2021/10/19 00:23:16;;;;;;;14.27;9.93;;;;;14.70;101331.00;;;;10287236;28;20192;-79
2021/10/19 00:28:18;;;;;;;10.87;9.57;;;;;14.70;101330.00;;;;10302710;28;20246;-78
2021/10/19 00:33:20;;;;;;;10.97;9.17;;;;;14.70;101314.00;;;;10302778;28;20864;-79
2021/10/19 00:38:23;;;;;;;11.07;8.80;;;;;14.70;101330.00;;;;10302977;28;20308;-79
2021/10/19 00:43:26;;;;;;;11.60;8.77;;;;;14.70;101335.00;;;;10302574;28;20796;-79
2021/10/19 00:48:31;;;;;;;9.70;8.23;;;;;14.70;101326.00;;;;10301545;28;20560;-79
2021/10/19 00:53:33;;;;;;;9.30;8.20;;;;;14.70;101324.00;;;;10293424;28;20644;-79
2021/10/19 00:58:39;;;;;;;7.03;6.27;;;;;14.70;101319.00;;;;10286030;28;20262;-78
2021/10/19 01:03:41;;;;;;;6.53;5.83;;;;;14.70;101337.00;;;;10301552;28;20204;-78
2021/10/19 01:08:43;;;;;;;7.50;5.77;;;;;14.70;101334.00;;;;10311591;28;20217;-79
2021/10/19 01:13:45;;;;;;;10.33;6.27;;;;;14.70;101318.00;;;;10286001;28;20607;-79
2021/10/19 01:18:47;;;;;;;5.50;5.00;;;;;14.70;101320.00;;;;10301160;28;20223;-78
2021/10/19 01:23:49;;;;;;;5.20;4.70;;;;;14.70;101309.00;;;;10316522;28;20243;-78
2021/10/19 01:28:51;;;;;;;5.70;4.80;;;;;14.70;101301.00;;;;10284858;28;20270;-79
2021/10/19 01:33:53;;;;;;;5.97;4.70;;;;;14.70;101304.00;;;;10301182;28;20655;-79
2021/10/19 01:38:55;;;;;;;6.23;4.90;;;;;14.70;101297.00;;;;10300456;28;20552;-79
2021/10/19 01:43:57;;;;;;;5.67;4.10;;;;;14.70;101294.00;;;;10300332;28;20193;-79
2021/10/19 01:48:59;;;;;;;4.13;3.73;;;;;14.70;101278.00;;;;10300547;28;20212;-79
2021/10/19 01:54:02;;;;;;;4.93;3.70;;;;;14.70;101269.00;;;;10299791;28;20243;-79
2021/10/19 01:59:03;;;;;;;4.20;3.70;;;;;14.70;101273.00;;;;10282655;28;20664;-79
2021/10/19 02:04:05;;;;;;;4.53;4.07;;;;;14.70;101261.00;;;;10299025;28;20243;-78
2021/10/19 02:09:07;;;;;;;4.40;3.50;;;;;14.70;101256.00;;;;10268979;28;20250;-79
2021/10/19 02:14:09;;;;;;;5.67;3.43;;;;;14.70;101249.00;;;;10280787;28;20196;-79
2021/10/19 02:19:11;;;;;;;4.63;4.07;;;;;14.70;101245.00;;;;10331616;28;20196;-78
2021/10/19 02:24:13;;;;;;;4.00;3.63;;;;;14.80;101255.00;;;;10299185;28;20196;-79
2021/10/19 02:29:17;;;;;;;4.50;3.27;;;;;14.80;101247.00;;;;10298784;28;20302;-79
2021/10/19 02:34:21;;;;;;;5.00;3.27;;;;;14.80;101244.00;;;;10331092;28;20703;-78
2021/10/19 02:39:23;;;;;;;4.23;3.83;;;;;14.80;101251.00;;;;10295803;28;20223;-78
2021/10/19 02:44:25;;;;;;;4.67;3.40;;;;;14.80;101245.00;;;;10298867;28;20203;-79
2021/10/19 02:49:27;;;;;;;4.87;3.77;;;;;14.90;101247.00;;;;10298595;28;20687;-79
2021/10/19 02:54:29;;;;;;;4.70;4.00;;;;;14.90;101252.00;;;;10298219;28;20220;-79
2021/10/19 02:59:30;;;;;;;5.57;4.20;;;;;14.90;101258.00;;;;10297690;28;20271;-79
2021/10/19 03:04:32;;;;;;;5.67;4.50;;;;;15.00;101248.00;;;;10282432;28;20192;-79
2021/10/19 03:09:34;;;;;;;6.07;5.10;;;;;15.00;101239.00;;;;10284868;28;20341;-79
2021/10/19 03:14:36;;;;;;;8.20;5.33;;;;;15.00;101228.00;;;;10305345;28;20284;-79
2021/10/19 03:19:38;;;;;;;5.73;5.23;;;;;15.10;101227.00;;;;10321529;28;20837;-79
2021/10/19 03:24:40;;;;;;;5.73;5.23;;;;;15.10;101228.00;;;;10321762;28;20200;-79
2021/10/19 03:29:42;;;;;;;6.40;5.80;;;;;15.10;101226.00;;;;10321363;28;20205;-79
2021/10/19 03:34:44;;;;;;;6.63;6.03;;;;;15.10;101233.00;;;;10304764;28;20192;-78
2021/10/19 03:39:46;;;;;;;7.57;6.13;;;;;15.10;101230.00;;;;10320874;28;20199;-79
2021/10/19 03:44:48;;;;;;;6.50;5.77;;;;;15.10;101236.00;;;;10321120;28;20193;-78
2021/10/19 03:49:50;;;;;;;7.40;5.90;;;;;15.10;101234.00;;;;10304313;28;20212;-79
2021/10/19 03:54:52;;;;;;;9.83;6.20;;;;;15.10;101238.00;;;;10304390;28;20580;-79
2021/10/19 03:59:54;;;;;;;5.43;4.93;;;;;15.20;101244.00;;;;10304307;28;20188;-78
2021/10/19 04:04:56;;;;;;;5.57;4.73;;;;;15.20;101260.00;;;;10288532;28;20656;-78
2021/10/19 04:09:58;;;;;;;5.17;4.33;;;;;15.20;101251.00;;;;10316052;28;20226;-78
2021/10/19 04:15:01;;;;;;;4.60;4.13;;;;;15.30;101257.00;;;;10303277;28;20715;-78
2021/10/19 04:20:05;;;;;;;5.00;4.60;;;;;15.30;101250.00;;;;10303504;28;20196;-78
2021/10/19 04:25:07;;;;;;;5.67;4.97;;;;;15.30;101249.00;;;;10319108;28;20656;-78
2021/10/19 04:30:10;;;;;;;6.25;5.75;;;;;15.40;101248.00;;;;10302680;28;20220;-78
2021/10/19 04:35:13;;;;;;;6.27;5.70;;;;;15.40;101262.00;;;;10286986;28;20223;-78
2021/10/19 04:40:15;;;;;;;11.13;7.27;;;;;15.40;101253.00;;;;10303114;28;20615;-79
2021/10/19 04:45:17;;;;;;;8.20;7.40;;;;;15.50;101251.00;;;;10287122;28;20247;-79
2021/10/19 04:50:19;;;;;;;9.30;8.23;;;;;15.50;101245.00;;;;10303143;28;20279;-78
2021/10/19 04:55:21;;;;;;;9.00;8.10;;;;;15.50;101230.00;;;;10302732;28;20267;-78
2021/10/19 05:00:23;;;;;;;8.73;7.80;;;;;15.50;101224.00;;;;10282046;28;20188;-79
2021/10/19 05:05:29;;;;;;;8.37;7.63;;;;;15.50;101228.00;;;;10290360;28;20210;-79
2021/10/19 05:10:31;;;;;;;7.30;6.70;;;;;15.50;101228.00;;;;10318792;28;20204;-79
2021/10/19 05:15:34;;;;;;;9.40;6.90;;;;;15.50;101230.00;;;;10286091;28;20607;-79
2021/10/19 05:20:39;;;;;;;7.03;5.87;;;;;15.50;101219.00;;;;10301903;28;20196;-79
2021/10/19 05:25:41;;;;;;;7.10;6.03;;;;;15.50;101221.00;;;;10317380;28;20204;-80
2021/10/19 05:30:43;;;;;;;6.27;5.67;;;;;15.50;101235.00;;;;10283577;28;20246;-79
2021/10/19 05:35:47;;;;;;;6.87;6.17;;;;;15.50;101233.00;;;;10301509;28;20184;-79
2021/10/19 05:40:49;;;;;;;7.77;5.80;;;;;15.60;101243.00;;;;10284952;28;20192;-79
2021/10/19 05:45:50;;;;;;;6.00;5.40;;;;;15.60;101242.00;;;;10285392;28;20235;-79
2021/10/19 05:50:52;;;;;;;8.38;5.22;;;;;15.60;101236.00;;;;10285804;28;20196;-79
2021/10/19 05:55:54;;;;;;;9.80;5.67;;;;;15.60;101239.00;;;;10300803;28;20212;-79
2021/10/19 06:00:56;;;;;;;5.97;5.40;;;;;15.60;101242.00;;;;10284369;28;20273;-79
2021/10/19 06:05:58;;;;;;;7.68;6.40;;;;;15.60;101235.00;;;;10299706;28;20231;-79
2021/10/19 06:11:00;;;;;;;6.97;5.80;;;;;15.60;101224.00;;;;10300931;28;20227;-79
2021/10/19 06:16:02;;;;;;;6.70;6.10;;;;;15.50;101233.00;;;;10300449;28;20204;-79
2021/10/19 06:21:06;;;;;;;6.07;5.47;;;;;15.50;101231.00;;;;10285466;28;20199;-79
2021/10/19 06:26:07;;;;;;;6.35;5.28;;;;;15.50;101234.00;;;;10298876;28;20208;-79
2021/10/19 06:31:09;;;;;;;6.60;5.27;;;;;15.50;101228.00;;;;10300479;28;20201;-80
2021/10/19 06:36:11;;;;;;;5.73;5.23;;;;;15.50;101228.00;;;;10301250;28;20192;-80
2021/10/19 06:41:14;;;;;;;5.80;4.53;;;;;15.60;101224.00;;;;10301125;28;20254;-79
2021/10/19 06:46:16;;;;;;;4.97;4.47;;;;;15.60;101210.00;;;;10306050;28;20742;-80
2021/10/19 06:51:18;;;;;;;5.53;4.50;;;;;15.60;101205.00;;;;10308112;28;20196;-80
2021/10/19 06:56:20;;;;;;;5.83;3.77;;;;;15.60;101219.00;;;;10293637;28;20212;-79
2021/10/19 07:01:22;;;;;;;6.33;4.47;;;;;15.60;101211.00;;;;10306297;28;20199;-80
2021/10/19 07:06:25;;;;;;;10.73;5.10;;;;;15.70;101228.00;;;;10315102;28;20234;-80
2021/10/19 07:11:27;;;;;;;8.38;5.28;;;;;15.70;101229.00;;;;10290680;28;20282;-79
2021/10/19 07:16:29;;;;;;;5.68;5.18;;;;;15.70;101225.00;;;;10318338;28;20192;-79
2021/10/19 07:21:30;;;;;;;9.93;6.17;;;;;15.70;101240.00;;;;10322347;28;20651;-80
2021/10/19 07:26:33;;;;;;;7.27;6.57;;;;;15.80;101238.00;;;;10289735;28;20243;-79
2021/10/19 07:31:35;;;;;;;10.95;8.48;;;;;15.90;101238.00;;;;10291159;28;20197;-79
2021/10/19 07:36:37;;;;;;;15.33;9.60;;;;;16.00;101238.00;;;;10300754;28;20185;-79
2021/10/19 07:41:39;;;;;;;21.38;12.10;;;;;16.10;101239.00;;;;10282113;28;20251;-78
2021/10/19 07:46:41;;;;;;;19.92;13.18;;;;;16.20;101243.00;;;;10320574;28;20279;-78
2021/10/19 07:51:43;;;;;;;25.73;15.50;;;;;16.20;101248.00;;;;10304366;28;20621;-78
2021/10/19 07:56:45;;;;;;;25.20;15.50;;;;;16.20;101250.00;;;;10280253;28;20264;-79
2021/10/19 08:01:47;;;;;;;25.92;17.33;;;;;16.30;101253.00;;;;10289078;28;20232;-79
2021/10/19 08:06:49;;;;;;;29.17;18.23;;;;;16.30;101256.00;;;;10285042;28;20247;-80
2021/10/19 08:11:51;;;;;;;25.50;17.98;;;;;16.40;101255.00;;;;10309840;28;20196;-79
2021/10/19 08:16:54;;;;;;;32.05;20.45;;;;;16.50;101265.00;;;;10291707;28;20197;-79
2021/10/19 08:21:56;;;;;;;31.77;20.23;;;;;16.60;101271.00;;;;10272136;28;20216;-79
2021/10/19 08:26:58;;;;;;;33.35;20.75;;;;;16.60;101271.00;;;;10303710;28;20232;-79
2021/10/19 08:32:01;;;;;;;38.60;23.08;;;;;16.60;101276.00;;;;10297076;28;20189;-79
2021/10/19 08:37:03;;;;;;;30.40;20.45;;;;;16.70;101281.00;;;;10300496;28;20200;-78
2021/10/19 08:42:05;;;;;;;32.10;19.73;;;;;16.90;101278.00;;;;10301940;28;20921;-78
2021/10/19 08:47:08;;;;;;;31.08;20.58;;;;;17.00;101278.00;;;;10318817;28;20212;-78
2021/10/19 08:52:10;;;;;;;28.33;20.83;;;;;17.00;101280.00;;;;10295384;28;20197;-79
2021/10/19 08:57:16;;;;;;;33.35;22.25;;;;;17.00;101279.00;;;;10270154;28;20267;-79
2021/10/19 09:02:18;;;;;;;32.08;21.40;;;;;17.10;101281.00;;;;10319595;28;20211;-79
2021/10/19 09:07:27;;;;;;;31.05;21.67;;;;;17.20;101278.00;;;;10286363;28;20640;-79
2021/10/19 09:12:29;;;;;;;29.90;20.95;;;;;17.10;101276.00;;;;10301170;28;20195;-79
2021/10/19 09:17:38;;;;;;;28.92;19.52;;;;;17.20;101272.00;;;;10309675;28;20216;-79
2021/10/19 09:22:57;;;;;;;27.77;20.02;;;;;17.30;101278.00;;;;10290512;28;20216;-78
2021/10/19 09:28:01;;;;;;;27.13;18.83;;;;;17.50;101275.00;;;;10299439;28;20270;-79
2021/10/19 09:33:06;;;;;;;25.58;18.08;;;;;17.70;101279.00;;;;10284910;28;20615;-79
2021/10/19 09:38:11;;;;;;;29.40;17.98;;;;;17.90;101270.00;;;;10284763;28;20203;-80
2021/10/19 09:43:18;;;;;;;27.00;16.95;;;;;18.20;101281.00;;;;10292089;28;20220;-79
2021/10/19 09:48:31;;;;;;;19.90;14.80;;;;;18.40;101286.00;;;;10299651;28;20215;-79
2021/10/19 09:53:35;;;;;;;21.10;13.73;;;;;18.50;101295.00;;;;10300091;28;20184;-79
2021/10/19 09:58:37;;;;;;;14.85;11.98;;;;;18.70;101283.00;;;;10299806;28;20213;-79
2021/10/19 10:03:46;;;;;;;16.88;11.40;;;;;18.80;101302.00;;;;10283796;28;20262;-79
2021/10/19 10:08:49;;;;;;;15.35;10.70;;;;;19.10;101295.00;;;;10300150;28;20212;-79
2021/10/19 10:14:04;;;;;;;9.38;7.70;;;;;19.50;101303.00;;;;10270008;28;20188;-79
2021/10/19 10:19:20;;;;;;;11.18;7.70;;;;;19.80;101295.00;;;;10315318;28;20196;-79
2021/10/19 10:24:28;;;;;;;8.52;6.93;;;;;20.10;101295.00;;;;10270006;28;20246;-79
2021/10/19 10:29:49;;;;;;;7.53;6.75;;;;;20.10;101299.00;;;;10273121;28;20239;-80
2021/10/19 10:35:09;;;;;;;7.75;6.07;;;;;19.80;101302.00;;;;10289303;28;20200;-80
2021/10/19 10:40:25;;;;;;;7.70;5.40;;;;;19.60;101297.00;;;;10284268;28;20317;-80
2021/10/19 10:45:33;;;;;;;7.35;5.72;;;;;19.60;101292.00;;;;10302945;28;20723;-80
2021/10/19 10:50:37;;;;;;;6.85;5.40;;;;;19.40;101278.00;;;;10274646;28;20212;-80
2021/10/19 10:55:48;;;;;;;8.02;5.38;;;;;19.40;101286.00;;;;10301470;28;20204;-80
2021/10/19 11:00:51;;;;;;;8.18;5.50;;;;;19.40;101282.00;;;;10300162;28;20541;-80
2021/10/19 11:05:59;;;;;;;7.55;5.53;;;;;19.30;101281.00;;;;10272964;28;20328;-81
2021/10/19 11:11:05;;;;;;;7.45;6.30;;;;;19.40;101284.00;;;;10262824;28;20216;-81
2021/10/19 11:16:07;;;;;;;7.18;5.95;;;;;19.40;101289.00;;;;10300950;28;20181;-81
2021/10/19 11:21:10;;;;;;;8.63;5.85;;;;;19.40;101298.00;;;;10317615;28;20634;-81
2021/10/19 11:26:11;;;;;;;6.60;5.88;;;;;19.30;101291.00;;;;10260823;28;20244;-81
2021/10/19 11:31:14;;;;;;;8.82;6.38;;;;;19.10;101287.00;;;;10264742;28;20216;-81
2021/10/19 11:36:17;;;;;;;8.77;7.13;;;;;19.40;101282.00;;;;10319168;28;20202;-80
2021/10/19 11:41:22;;;;;;;8.05;6.72;;;;;19.30;101277.00;;;;10307391;28;20189;-81
2021/10/19 11:46:27;;;;;;;8.25;6.93;;;;;19.40;101266.00;;;;10278002;28;20262;-81
2021/10/19 11:51:30;;;;;;;10.13;6.80;;;;;19.50;101264.00;;;;10290636;28;20220;-82
2021/10/19 11:56:32;;;;;;;11.80;7.30;;;;;19.60;101271.00;;;;10306577;28;20226;-80
2021/10/19 12:01:40;;;;;;;7.70;6.95;;;;;19.60;101268.00;;;;10305809;28;20287;-80
2021/10/19 12:06:46;;;;;;;9.52;7.47;;;;;19.50;101265.00;;;;10329848;28;20223;-80
2021/10/19 12:11:49;;;;;;;8.73;6.90;;;;;19.40;101252.00;;;;10324803;28;20192;-80
2021/10/19 12:16:55;;;;;;;10.18;7.53;;;;;19.40;101243.00;;;;10304852;28;20909;-80
2021/10/19 12:22:02;;;;;;;11.55;7.65;;;;;19.40;101245.00;;;;10289398;28;20258;-80
2021/10/19 12:27:14;;;;;;;10.65;7.97;;;;;19.50;101237.00;;;;10280022;28;20270;-80
2021/10/19 12:32:17;;;;;;;12.02;7.65;;;;;19.60;101222.00;;;;10303732;28;20196;-80
2021/10/19 12:37:18;;;;;;;9.40;8.40;;;;;19.60;101224.00;;;;10295219;28;20187;-80
2021/10/19 12:42:20;;;;;;;13.82;8.50;;;;;19.50;101221.00;;;;10303167;28;20260;-80
2021/10/19 12:47:22;;;;;;;12.40;8.95;;;;;19.40;101201.00;;;;10319098;28;20613;-80
2021/10/19 12:52:25;;;;;;;13.63;9.60;;;;;19.30;101198.00;;;;10256259;28;20188;-80
2021/10/19 12:57:27;;;;;;;16.48;10.07;;;;;19.20;101199.00;;;;10315410;28;20208;-80
2021/10/19 13:02:29;;;;;;;14.38;10.98;;;;;19.30;101202.00;;;;10292331;28;20608;-80
2021/10/19 13:07:34;;;;;;;14.15;11.77;;;;;19.30;101192.00;;;;10283781;28;20227;-80
2021/10/19 13:12:36;;;;;;;15.07;11.88;;;;;19.50;101184.00;;;;10282137;28;20215;-80
2021/10/19 13:17:38;;;;;;;13.63;11.38;;;;;19.70;101176.00;;;;10299361;28;20223;-81
2021/10/19 13:22:42;;;;;;;14.60;11.50;;;;;19.50;101181.00;;;;10343071;28;20201;-80
2021/10/19 13:27:43;;;;;;;13.10;11.15;;;;;19.30;101178.00;;;;10298951;28;20250;-80
2021/10/19 13:32:48;;;;;;;16.30;12.10;;;;;19.30;101182.00;;;;10283589;28;20200;-80
2021/10/19 13:37:50;;;;;;;13.50;12.10;;;;;19.20;101176.00;;;;10288833;28;20544;-80
2021/10/19 13:42:51;;;;;;;14.10;11.82;;;;;19.40;101174.00;;;;10333960;28;20192;-80
2021/10/19 13:47:53;;;;;;;14.05;11.80;;;;;19.90;101174.00;;;;10299801;28;20425;-80
2021/10/19 13:52:55;;;;;;;13.15;11.55;;;;;20.20;101179.00;;;;10326032;28;21111;-80
2021/10/19 13:57:57;;;;;;;13.13;10.55;;;;;20.60;101178.00;;;;10297516;28;20232;-80
2021/10/19 14:02:59;;;;;;;12.85;10.52;;;;;21.10;101191.00;;;;10263830;28;20195;-80
2021/10/19 14:08:09;;;;;;;9.85;8.85;;;;;21.10;101184.00;;;;10332497;28;20236;-79
2021/10/19 14:13:11;;;;;;;12.07;9.30;;;;;21.00;101185.00;;;;10295821;28;20245;-79
2021/10/19 14:18:13;;;;;;;12.35;8.40;;;;;20.60;101174.00;;;;10277945;28;20201;-79
2021/10/19 14:23:15;;;;;;;12.45;8.57;;;;;20.40;101167.00;;;;10280815;28;20231;-79
2021/10/19 14:28:16;;;;;;;10.73;8.52;;;;;20.20;101162.00;;;;10274898;28;20244;-79
2021/10/19 14:33:20;;;;;;;10.73;8.25;;;;;20.00;101152.00;;;;10297009;28;20192;-79
2021/10/19 14:38:22;;;;;;;11.38;8.13;;;;;20.40;101131.00;;;;10288336;28;20200;-80
2021/10/19 14:43:25;;;;;;;9.52;7.50;;;;;21.00;101131.00;;;;10288877;28;20196;-79
2021/10/19 14:48:28;;;;;;;10.10;7.70;;;;;20.80;101124.00;;;;10294157;28;20212;-79
2021/10/19 14:53:30;;;;;;;12.20;8.00;;;;;20.30;101111.00;;;;10278601;28;20189;-80
2021/10/19 14:58:32;;;;;;;11.32;8.57;;;;;20.00;101090.00;;;;10289691;28;20251;-79
2021/10/19 15:03:34;;;;;;;11.90;8.07;;;;;19.60;101073.00;;;;10303753;28;20295;-80
2021/10/19 15:08:36;;;;;;;13.02;9.13;;;;;19.50;101056.00;;;;10307932;28;20687;-80
2021/10/19 15:13:39;;;;;;;13.40;8.48;;;;;19.40;101051.00;;;;10306908;28;20184;-79
2021/10/19 15:18:42;;;;;;;11.43;9.60;;;;;19.20;101044.00;;;;10279240;28;20218;-80
2021/10/19 15:23:44;;;;;;;13.93;8.15;;;;;19.00;101038.00;;;;10302018;28;20199;-80
2021/10/19 15:28:46;;;;;;;14.40;9.88;;;;;18.90;101042.00;;;;10292187;28;20204;-80
2021/10/19 15:33:48;;;;;;;11.45;9.25;;;;;18.70;101035.00;;;;10290336;28;20224;-79
2021/10/19 15:38:50;;;;;;;14.20;9.60;;;;;18.70;101026.00;;;;10300851;28;20200;-79
2021/10/19 15:43:52;;;;;;;12.35;10.20;;;;;18.60;101022.00;;;;10304144;28;20297;-79
2021/10/19 15:49:05;;;;;;;11.00;9.65;;;;;18.50;101019.00;;;;10297231;28;20212;-80
2021/10/19 15:54:07;;;;;;;13.77;10.18;;;;;18.40;101016.00;;;;10290582;28;20200;-80
2021/10/19 15:59:13;;;;;;;12.02;10.30;;;;;18.30;101029.00;;;;10279464;28;20587;-80
2021/10/19 16:04:15;;;;;;;14.75;9.70;;;;;18.10;101023.00;;;;10315794;28;20197;-80
2021/10/19 16:09:17;;;;;;;15.27;11.27;;;;;18.00;101024.00;;;;10306560;28;20224;-80
2021/10/19 16:14:20;;;;;;;12.65;10.68;;;;;17.90;101025.00;;;;10301686;28;20656;-79
2021/10/19 16:19:26;;;;;;;13.43;10.70;;;;;17.70;101024.00;;;;10289916;28;20202;-80
2021/10/19 16:24:28;;;;;;;13.57;11.02;;;;;17.60;101022.00;;;;10318732;28;20549;-79
2021/10/19 16:29:31;;;;;;;13.57;11.20;;;;;17.40;101007.00;;;;10332102;28;20208;-79
2021/10/19 16:34:33;;;;;;;12.10;10.50;;;;;17.20;101006.00;;;;10317736;28;20195;-79
2021/10/19 16:39:35;;;;;;;18.75;11.02;;;;;17.00;101001.00;;;;10319377;28;20683;-80
2021/10/19 16:44:37;;;;;;;17.67;11.50;;;;;16.90;100986.00;;;;10269888;28;20244;-79
2021/10/19 16:49:39;;;;;;;15.63;11.20;;;;;16.70;100985.00;;;;10333792;28;20212;-79
2021/10/19 16:54:41;;;;;;;16.25;10.25;;;;;16.60;100992.00;;;;10316960;28;20243;-80
2021/10/19 16:59:42;;;;;;;16.73;9.85;;;;;16.50;100988.00;;;;10286183;28;20185;-79
2021/10/19 17:04:44;;;;;;;14.55;11.13;;;;;16.40;100990.00;;;;10295102;28;20635;-79
2021/10/19 17:09:46;;;;;;;14.48;11.23;;;;;16.30;100985.00;;;;10295237;28;20207;-79
2021/10/19 17:14:49;;;;;;;14.98;10.60;;;;;16.30;100990.00;;;;10269393;28;20208;-79
2021/10/19 17:19:50;;;;;;;13.73;9.60;;;;;16.30;101003.00;;;;10285126;28;20204;-79
2021/10/19 17:24:53;;;;;;;11.32;9.30;;;;;16.40;100999.00;;;;10284550;28;20242;-79
2021/10/19 17:29:55;;;;;;;13.23;9.50;;;;;16.30;100992.00;;;;10283313;28;20215;-79
2021/10/19 17:34:56;;;;;;;14.85;9.73;;;;;16.30;100997.00;;;;10300065;28;20251;-79
2021/10/19 17:39:58;;;;;;;13.68;8.63;;;;;16.30;100993.00;;;;10282645;28;20192;-79
2021/10/19 17:45:03;;;;;;;10.30;8.07;;;;;16.40;100993.00;;;;10299899;28;20572;-79
2021/10/19 17:50:05;;;;;;;11.35;8.57;;;;;16.40;100978.00;;;;10303308;28;20828;-80
2021/10/19 17:55:08;;;;;;;11.07;8.35;;;;;16.50;100983.00;;;;10319639;28;20223;-79
2021/10/19 18:00:13;;;;;;;11.25;7.63;;;;;16.50;100979.00;;;;10306403;28;20238;-79
2021/10/19 18:05:15;;;;;;;12.60;8.10;;;;;16.50;100972.00;;;;10284092;28;20200;-79
2021/10/19 18:10:29;;;;;;;8.00;6.68;;;;;16.50;100975.00;;;;10281597;28;20687;-80
2021/10/19 18:15:31;;;;;;;7.82;7.03;;;;;16.40;100953.00;;;;10291348;28;20748;-79
2021/10/19 18:20:35;;;;;;;9.85;7.55;;;;;16.40;100945.00;;;;10299128;28;20212;-80
2021/10/19 18:25:38;;;;;;;7.70;6.80;;;;;16.40;100954.00;;;;10297807;28;20540;-79
2021/10/19 18:30:40;;;;;;;7.72;6.60;;;;;16.40;100956.00;;;;10313396;28;20235;-79
2021/10/19 18:35:42;;;;;;;9.43;6.68;;;;;16.40;100946.00;;;;10329410;28;20188;-79
2021/10/19 18:40:44;;;;;;;7.15;6.07;;;;;16.30;100952.00;;;;10303276;28;20738;-79
2021/10/19 18:45:48;;;;;;;11.55;6.13;;;;;16.30;100951.00;;;;10301865;28;20250;-80
2021/10/19 18:50:50;;;;;;;7.95;6.00;;;;;16.30;100938.00;;;;10322887;28;20215;-79
2021/10/19 18:55:52;;;;;;;6.82;5.47;;;;;16.30;100924.00;;;;10289288;28;20227;-79
2021/10/19 19:00:55;;;;;;;5.90;5.32;;;;;16.40;100924.00;;;;10303871;28;20255;-79
2021/10/19 19:05:57;;;;;;;7.18;6.03;;;;;16.40;100929.00;;;;10288138;28;20196;-79
2021/10/19 19:11:01;;;;;;;6.10;5.18;;;;;16.40;100905.00;;;;10298800;28;20604;-79
2021/10/19 19:16:04;;;;;;;5.72;5.13;;;;;16.50;100913.00;;;;10273230;28;20196;-79
2021/10/19 19:21:05;;;;;;;8.60;5.07;;;;;16.40;100908.00;;;;10284556;28;20197;-80
2021/10/19 19:26:08;;;;;;;5.00;4.45;;;;;16.20;100899.00;;;;10304306;28;20246;-79
2021/10/19 19:31:10;;;;;;;6.35;4.80;;;;;16.20;100896.00;;;;10299203;28;20759;-79
2021/10/19 19:36:12;;;;;;;7.75;4.80;;;;;16.10;100887.00;;;;10284381;28;20204;-80
2021/10/19 19:41:15;;;;;;;5.43;4.40;;;;;16.00;100885.00;;;;10285506;28;20196;-79
2021/10/19 19:46:17;;;;;;;5.10;4.55;;;;;16.00;100879.00;;;;10301898;28;20255;-79
2021/10/19 19:51:19;;;;;;;6.68;4.03;;;;;15.90;100882.00;;;;10284640;28;20208;-79
2021/10/19 19:56:21;;;;;;;5.32;4.05;;;;;15.90;100881.00;;;;10298557;28;20212;-79
2021/10/19 20:01:24;;;;;;;4.63;3.75;;;;;15.80;100879.00;;;;10297904;28;20699;-80
2021/10/19 20:06:29;;;;;;;4.70;4.22;;;;;15.90;100872.00;;;;10306323;28;20266;-79
2021/10/19 20:11:31;;;;;;;4.95;4.50;;;;;15.90;100876.00;;;;10285116;28;20579;-79
2021/10/19 20:16:33;;;;;;;4.88;3.83;;;;;15.90;100871.00;;;;10290290;28;20203;-79
2021/10/19 20:21:37;;;;;;;4.35;3.95;;;;;15.70;100856.00;;;;10287248;28;20287;-79
2021/10/19 20:26:51;;;;;;;4.55;3.60;;;;;15.60;100858.00;;;;10324908;28;20629;-79
2021/10/19 20:31:54;;;;;;;6.50;3.83;;;;;15.50;100858.00;;;;10284794;28;20232;-79
2021/10/19 20:36:56;;;;;;;5.20;3.53;;;;;15.50;100856.00;;;;10285455;28;20277;-79
2021/10/19 20:41:58;;;;;;;3.47;3.17;;;;;15.40;100853.00;;;;10284448;28;20555;-79
2021/10/19 20:47:01;;;;;;;4.03;3.40;;;;;15.40;100851.00;;;;10299461;28;20192;-79
2021/10/19 20:52:03;;;;;;;4.77;3.40;;;;;15.40;100843.00;;;;10316182;28;20292;-79
2021/10/19 20:57:05;;;;;;;5.80;3.38;;;;;15.40;100844.00;;;;10298492;28;20302;-79
2021/10/19 21:02:09;;;;;;;3.50;3.13;;;;;15.40;100844.00;;;;10297239;28;20189;-79
2021/10/19 21:07:12;;;;;;;4.90;3.20;;;;;15.40;100850.00;;;;10278169;28;20280;-79
2021/10/19 21:12:15;;;;;;;4.90;3.30;;;;;15.40;100834.00;;;;10282523;28;20212;-79
2021/10/19 21:17:17;;;;;;;6.10;3.50;;;;;15.30;100819.00;;;;10281852;28;20197;-79
2021/10/19 21:22:19;;;;;;;7.87;3.00;;;;;15.40;100817.00;;;;10283538;28;20187;-80
2021/10/19 21:27:22;;;;;;;6.57;3.45;;;;;15.40;100801.00;;;;10298429;28;20200;-79
2021/10/19 21:32:24;;;;;;;5.93;3.20;;;;;15.50;100799.00;;;;10276890;28;20241;-80
2021/10/19 21:37:26;;;;;;;4.85;2.85;;;;;15.50;100789.00;;;;10283855;28;20201;-79
2021/10/19 21:42:28;;;;;;;5.63;3.15;;;;;15.60;100793.00;;;;10305597;28;20192;-80
2021/10/19 21:47:32;;;;;;;7.13;3.70;;;;;15.70;100791.00;;;;10297211;28;20218;-79
2021/10/19 21:52:36;;;;;;;4.28;3.05;;;;;15.70;100777.00;;;;10299458;28;20220;-78
2021/10/19 21:57:38;;;;;;;5.05;2.97;;;;;15.70;100781.00;;;;10285109;28;20216;-79
2021/10/19 22:02:40;;;;;;;3.08;2.85;;;;;15.80;100775.00;;;;10293433;28;20188;-78
2021/10/19 22:07:42;;;;;;;5.03;3.05;;;;;15.90;100761.00;;;;10300854;28;20573;-79
2021/10/19 22:12:46;;;;;;;4.57;3.28;;;;;15.90;100758.00;;;;10298065;28;20624;-78
2021/10/19 22:17:48;;;;;;;5.05;3.13;;;;;16.00;100764.00;;;;10284776;28;20196;-79
2021/10/19 22:22:50;;;;;;;3.83;2.95;;;;;16.00;100752.00;;;;10300183;28;20556;-79
2021/10/19 22:27:52;;;;;;;3.83;2.75;;;;;16.10;100744.00;;;;10300392;28;20200;-79
2021/10/19 22:32:55;;;;;;;4.45;2.88;;;;;16.10;100736.00;;;;10316005;28;20742;-79
2021/10/19 22:37:56;;;;;;;3.28;2.90;;;;;16.20;100720.00;;;;10284132;28;20196;-79
2021/10/19 22:42:59;;;;;;;3.72;2.70;;;;;16.30;100724.00;;;;10299874;28;20192;-79
2021/10/19 22:48:02;;;;;;;4.07;2.45;;;;;16.40;100720.00;;;;10300145;28;20201;-79
2021/10/19 22:53:04;;;;;;;5.68;2.65;;;;;16.40;100701.00;;;;10299542;28;20204;-79
2021/10/19 22:58:06;;;;;;;4.20;2.75;;;;;16.30;100705.00;;;;10293591;28;20236;-79
2021/10/19 23:03:09;;;;;;;4.93;2.40;;;;;16.20;100704.00;;;;10300090;28;20220;-79
2021/10/19 23:08:11;;;;;;;3.60;2.92;;;;;16.10;100686.00;;;;10283570;28;20237;-79
2021/10/19 23:13:13;;;;;;;3.75;2.45;;;;;16.00;100695.00;;;;10315651;28;20258;-79
2021/10/19 23:18:16;;;;;;;3.85;2.70;;;;;16.10;100680.00;;;;10284099;28;20188;-79
2021/10/19 23:23:22;;;;;;;7.70;2.78;;;;;16.00;100683.00;;;;10283666;28;20207;-79
2021/10/19 23:28:24;;;;;;;3.90;2.60;;;;;15.90;100678.00;;;;10305027;28;20627;-78
2021/10/19 23:33:26;;;;;;;4.22;2.90;;;;;15.90;100672.00;;;;10321932;28;20209;-79
2021/10/19 23:38:29;;;;;;;4.50;2.63;;;;;15.90;100679.00;;;;10290645;28;20192;-79
2021/10/19 23:43:31;;;;;;;3.10;2.63;;;;;15.90;100666.00;;;;10305903;28;20664;-79
2021/10/19 23:48:34;;;;;;;3.47;2.78;;;;;15.90;100670.00;;;;10303718;28;20672;-79
2021/10/19 23:53:36;;;;;;;4.35;2.90;;;;;15.90;100656.00;;;;10321742;28;20185;-78
2021/10/19 23:58:38;;;;;;;4.50;2.60;;;;;15.90;100652.00;;;;10321716;28;20212;-79
